Aviation Digital Data Service (ADDS)

Output produced by METARs form (1941 UTC 31 January 2023)
found at http://www.aviationweather.gov/metar/data/
 
VTSM 311500Z 12004KT 080V160 9999 FEW020 27/22 Q1012 NOSIG
VTSM 311400Z 10004KT 9999 FEW020 27/22 Q1012 NOSIG
VTSM 311300Z 09004KT 9999 FEW020 27/22 Q1011 NOSIG
VTSM 311200Z 03004KT 9999 SCT020 27/22 Q1011 NOSIG
VTSM 311100Z 04006KT 9999 FEW020 SCT100 27/21 Q1010 NOSIG
VTSM 311000Z 06006KT 9999 SCT020 BKN100 27/22 Q1010 NOSIG
VTSM 310900Z 03008KT 360V070 9999 SCT020 BKN100 28/22 Q1010 NOSIG
VTSM 310800Z 04008KT 360V070 9999 FEW020 BKN100 29/21 Q1010 NOSIG
VTSM 310700Z 04010KT 9999 FEW020 BKN100 29/21 Q1011 NOSIG
VTSM 310600Z 03010KT 360V060 9999 FEW020 BKN100 30/21 Q1012 NOSIG
VTSM 310500Z 05008KT 9999 FEW020 29/22 Q1013 NOSIG
VTSM 310400Z 04009KT 9999 FEW020 30/22 Q1013 NOSIG
VTSM 310300Z 04008KT 9999 FEW020 29/21 Q1013 NOSIG
VTSM 310200Z 05006KT 9000 FEW020 29/23 Q1013 NOSIG
VTSM 310100Z 00000KT 9000 FEW020 25/22 Q1013 NOSIG
VTSM 310000Z 00000KT 9000 FEW020 24/22 Q1012 NOSIG
VTSM 302300Z 00000KT 9000 FEW020 24/22 Q1011 NOSIG
VTSM 302200Z 00000KT 9999 FEW020 24/23 Q1011 NOSIG
TAF VTSM 311700Z 3118/0118 04005KT 9999 FEW020